Time;durP1;ratioP1;P1;durP2;ratioP2;P2;SDS_P1;SDS_P2;PMS_P1;PMS_P2;Temp;Humidity;BMP_temperature;BMP_pressure;BME280_temperature;BME280_humidity;BME280_pressure;Samples;Min_cycle;Max_cycle;Signal;HPM_P1;HPM_P2
2022/11/07 00:00:29;;;;;;;0.70;0.70;;;;;8.80;95847.00;;;;5094962;28;20190;-59
2022/11/07 00:02:56;;;;;;;0.97;0.87;;;;;8.80;95849.00;;;;5094762;28;20246;-58
2022/11/07 00:05:24;;;;;;;0.63;0.63;;;;;8.90;95850.00;;;;5094871;28;20197;-60
2022/11/07 00:07:53;;;;;;;0.67;0.67;;;;;9.00;95842.00;;;;5094490;28;20249;-57
2022/11/07 00:10:22;;;;;;;0.87;0.87;;;;;9.10;95857.00;;;;5094834;28;20519;-57
2022/11/07 00:12:51;;;;;;;0.60;0.60;;;;;9.00;95863.00;;;;5094659;28;20202;-57
2022/11/07 00:15:18;;;;;;;0.70;0.70;;;;;9.10;95859.00;;;;5076862;28;20210;-56
2022/11/07 00:17:47;;;;;;;0.60;0.60;;;;;9.20;95853.00;;;;5094582;28;20213;-58
2022/11/07 00:20:15;;;;;;;0.53;0.53;;;;;9.10;95862.00;;;;5094659;28;20233;-58
2022/11/07 00:22:42;;;;;;;0.60;0.60;;;;;9.20;95864.00;;;;5094794;28;20615;-61
2022/11/07 00:25:09;;;;;;;0.60;0.60;;;;;9.20;95873.00;;;;5094707;28;20246;-62
2022/11/07 00:27:36;;;;;;;0.70;0.70;;;;;9.10;95874.00;;;;5094484;28;20272;-58
2022/11/07 00:30:03;;;;;;;1.00;1.00;;;;;9.20;95874.00;;;;5094716;28;20198;-57
2022/11/07 00:32:30;;;;;;;0.50;0.50;;;;;9.20;95881.00;;;;5094500;28;20193;-58
2022/11/07 00:34:59;;;;;;;0.80;0.80;;;;;9.30;95881.00;;;;5094377;28;20278;-57
2022/11/07 00:37:26;;;;;;;0.60;0.60;;;;;9.30;95886.00;;;;5094388;28;20708;-57
2022/11/07 00:39:53;;;;;;;0.50;0.50;;;;;9.20;95885.00;;;;5094510;28;20596;-58
2022/11/07 00:42:20;;;;;;;0.60;0.60;;;;;9.20;95882.00;;;;5094180;28;20224;-60
2022/11/07 00:44:49;;;;;;;0.50;0.50;;;;;9.20;95892.00;;;;5094333;28;20669;-59
2022/11/07 00:47:16;;;;;;;0.50;0.50;;;;;9.40;95902.00;;;;5094110;28;20303;-58
2022/11/07 00:49:43;;;;;;;1.20;1.10;;;;;9.50;95894.00;;;;5094325;28;20194;-58
2022/11/07 00:52:09;;;;;;;0.50;0.50;;;;;9.40;95891.00;;;;5094199;28;20201;-60
2022/11/07 00:54:36;;;;;;;0.60;0.60;;;;;9.40;95885.00;;;;5094102;28;20190;-56
2022/11/07 00:57:04;;;;;;;0.80;0.80;;;;;9.40;95893.00;;;;5093908;28;20191;-58
2022/11/07 00:59:33;;;;;;;0.60;0.60;;;;;9.30;95897.00;;;;5093972;28;20230;-59
2022/11/07 01:02:00;;;;;;;0.70;0.70;;;;;9.40;95894.00;;;;5094036;28;20190;-57
2022/11/07 01:07:11;;;;;;;0.60;0.60;;;;;9.50;95896.00;;;;5093982;28;20251;-58
2022/11/07 01:09:38;;;;;;;0.83;0.83;;;;;9.40;95891.00;;;;5075952;28;20646;-57
2022/11/07 01:12:06;;;;;;;0.70;0.70;;;;;9.40;95892.00;;;;5093951;28;20198;-57
2022/11/07 01:14:36;;;;;;;0.60;0.60;;;;;9.50;95890.00;;;;5093877;28;20251;-57
2022/11/07 01:17:02;;;;;;;0.60;0.60;;;;;9.60;95894.00;;;;5093756;28;20187;-56
2022/11/07 01:19:29;;;;;;;0.57;0.57;;;;;9.50;95881.00;;;;5093726;28;20213;-57
2022/11/07 01:21:58;;;;;;;0.60;0.60;;;;;9.50;95882.00;;;;5093603;28;20226;-58
2022/11/07 01:24:25;;;;;;;0.60;0.60;;;;;9.50;95894.00;;;;5093581;28;20646;-57
2022/11/07 01:26:52;;;;;;;0.60;0.60;;;;;9.30;95884.00;;;;5093576;28;20217;-57
2022/11/07 01:29:19;;;;;;;0.80;0.80;;;;;9.40;95883.00;;;;5093492;28;20283;-59
2022/11/07 01:31:49;;;;;;;0.70;0.70;;;;;9.50;95878.00;;;;5075566;28;20218;-57
2022/11/07 01:34:16;;;;;;;0.60;0.60;;;;;9.60;95883.00;;;;5093546;28;20507;-57
2022/11/07 01:36:43;;;;;;;0.70;0.70;;;;;9.70;95877.00;;;;5075644;28;20233;-57
2022/11/07 01:39:10;;;;;;;1.40;0.90;;;;;9.80;95885.00;;;;5093459;28;20197;-57
2022/11/07 01:41:38;;;;;;;0.60;0.60;;;;;9.70;95896.00;;;;5075627;28;20194;-57
2022/11/07 01:44:38;;;;;;;0.60;0.60;;;;;9.70;95890.00;;;;5093280;28;20222;-57
2022/11/07 01:47:06;;;;;;;0.50;0.50;;;;;9.70;95885.00;;;;5093165;28;20229;-58
2022/11/07 01:49:37;;;;;;;0.70;0.70;;;;;9.70;95881.00;;;;5075526;28;20655;-57
2022/11/07 01:52:08;;;;;;;0.60;0.60;;;;;9.70;95880.00;;;;5093398;28;20197;-57
2022/11/07 01:54:45;;;;;;;0.70;0.70;;;;;9.70;95878.00;;;;5093149;28;20233;-59
2022/11/07 01:57:18;;;;;;;0.50;0.50;;;;;9.70;95886.00;;;;5093241;28;20213;-57
2022/11/07 01:59:46;;;;;;;1.67;1.57;;;;;9.70;95882.00;;;;5093152;28;20208;-57
2022/11/07 02:02:14;;;;;;;0.70;0.70;;;;;9.80;95882.00;;;;5075361;28;20228;-61
2022/11/07 02:04:41;;;;;;;0.50;0.50;;;;;9.70;95888.00;;;;5075256;28;20292;-57
2022/11/07 02:07:13;;;;;;;0.60;0.60;;;;;9.70;95879.00;;;;5093074;28;20190;-57
2022/11/07 02:09:40;;;;;;;0.87;0.87;;;;;9.70;95878.00;;;;5095699;28;20256;-57
2022/11/07 02:12:08;;;;;;;0.60;0.60;;;;;9.70;95889.00;;;;5096488;28;20222;-57
2022/11/07 02:14:34;;;;;;;1.13;1.13;;;;;9.80;95885.00;;;;5096628;28;20199;-58
2022/11/07 02:17:01;;;;;;;0.70;0.70;;;;;9.80;95879.00;;;;5096394;28;20219;-58
2022/11/07 02:19:35;;;;;;;0.70;0.70;;;;;9.80;95874.00;;;;5096683;28;20282;-60
2022/11/07 02:22:12;;;;;;;0.73;0.73;;;;;9.90;95875.00;;;;5096419;28;20203;-59
2022/11/07 02:24:40;;;;;;;0.50;0.50;;;;;9.80;95877.00;;;;5096580;28;20223;-57
2022/11/07 02:27:11;;;;;;;0.63;0.63;;;;;9.80;95878.00;;;;5096492;28;20195;-62
2022/11/07 02:29:39;;;;;;;0.60;0.60;;;;;9.80;95885.00;;;;5096371;28;20223;-57
2022/11/07 02:32:08;;;;;;;0.50;0.50;;;;;9.70;95885.00;;;;5096295;28;20364;-58
2022/11/07 02:34:36;;;;;;;0.60;0.60;;;;;9.80;95882.00;;;;5096136;28;20680;-57
2022/11/07 02:37:05;;;;;;;0.90;0.90;;;;;9.70;95876.00;;;;5096220;28;20583;-57
2022/11/07 02:39:32;;;;;;;0.80;0.80;;;;;9.70;95882.00;;;;5095976;28;20215;-58
2022/11/07 02:42:01;;;;;;;0.70;0.70;;;;;9.80;95873.00;;;;5096154;28;20658;-57
2022/11/07 02:44:29;;;;;;;0.60;0.60;;;;;9.80;95868.00;;;;5096097;28;20197;-58
2022/11/07 02:46:57;;;;;;;0.60;0.60;;;;;9.80;95879.00;;;;5096244;28;20642;-57
2022/11/07 02:49:24;;;;;;;0.70;0.70;;;;;9.90;95870.00;;;;5078039;28;20291;-57
2022/11/07 02:51:51;;;;;;;0.50;0.50;;;;;9.80;95867.00;;;;5096086;28;20198;-57
2022/11/07 02:54:20;;;;;;;0.60;0.60;;;;;9.80;95873.00;;;;5096074;28;20206;-57
2022/11/07 02:56:46;;;;;;;4.93;1.37;;;;;9.80;95874.00;;;;5095678;28;20218;-58
2022/11/07 02:59:16;;;;;;;0.60;0.60;;;;;9.90;95866.00;;;;5078155;28;20203;-59
2022/11/07 03:01:43;;;;;;;1.20;1.20;;;;;10.00;95881.00;;;;5095829;28;20287;-59
2022/11/07 03:04:10;;;;;;;0.57;0.57;;;;;10.00;95876.00;;;;5096095;28;20224;-57
2022/11/07 03:06:36;;;;;;;0.50;0.50;;;;;9.90;95877.00;;;;5078351;28;20712;-59
2022/11/07 03:09:03;;;;;;;0.90;0.90;;;;;9.90;95876.00;;;;5078038;28;20222;-57
2022/11/07 03:11:30;;;;;;;4.23;1.07;;;;;9.90;95882.00;;;;5095714;28;20248;-57
2022/11/07 03:13:57;;;;;;;0.60;0.60;;;;;9.90;95877.00;;;;5095630;28;20195;-59
2022/11/07 03:16:27;;;;;;;0.80;0.80;;;;;9.90;95891.00;;;;5095625;28;20707;-57
2022/11/07 03:18:54;;;;;;;0.77;0.77;;;;;9.90;95896.00;;;;5077739;28;20226;-57
2022/11/07 03:21:20;;;;;;;0.60;0.60;;;;;9.90;95896.00;;;;5095603;28;20202;-57
2022/11/07 03:23:47;;;;;;;7.57;1.67;;;;;10.00;95890.00;;;;5077625;28;20198;-57
2022/11/07 03:26:14;;;;;;;0.50;0.50;;;;;9.90;95894.00;;;;5095579;28;20331;-57
2022/11/07 03:28:41;;;;;;;0.60;0.60;;;;;10.00;95895.00;;;;5095429;28;20219;-57
2022/11/07 03:31:10;;;;;;;0.77;0.77;;;;;9.90;95894.00;;;;5095322;28;20218;-57
2022/11/07 03:33:37;;;;;;;0.60;0.60;;;;;9.90;95900.00;;;;5095397;28;20191;-57
2022/11/07 03:36:05;;;;;;;1.10;1.10;;;;;10.00;95901.00;;;;5095248;28;20302;-58
2022/11/07 03:38:31;;;;;;;0.60;0.60;;;;;10.00;95896.00;;;;5077469;28;20210;-57
2022/11/07 03:40:58;;;;;;;0.70;0.70;;;;;9.90;95894.00;;;;5095125;28;20226;-57
2022/11/07 03:43:25;;;;;;;0.87;0.87;;;;;10.00;95904.00;;;;5095345;28;20203;-57
2022/11/07 03:45:54;;;;;;;0.60;0.60;;;;;9.90;95897.00;;;;5095132;28;20205;-57
2022/11/07 03:48:21;;;;;;;0.83;0.83;;;;;9.90;95889.00;;;;5077252;28;20223;-60
2022/11/07 03:50:48;;;;;;;0.67;0.67;;;;;9.80;95908.00;;;;5095069;28;20253;-59
2022/11/07 03:53:15;;;;;;;2.70;1.50;;;;;9.80;95901.00;;;;5077303;28;20289;-57
2022/11/07 03:55:45;;;;;;;0.93;0.93;;;;;9.80;95898.00;;;;5095189;28;20206;-61
2022/11/07 03:58:12;;;;;;;0.60;0.60;;;;;9.80;95903.00;;;;5095081;28;20218;-57
2022/11/07 04:00:39;;;;;;;0.70;0.70;;;;;9.70;95902.00;;;;5094963;28;20190;-57
2022/11/07 04:03:06;;;;;;;0.87;0.87;;;;;9.60;95902.00;;;;5095013;28;20219;-57
2022/11/07 04:05:32;;;;;;;0.97;0.97;;;;;9.70;95908.00;;;;5094930;28;20235;-57
2022/11/07 04:08:00;;;;;;;0.80;0.80;;;;;9.70;95907.00;;;;5094854;28;20272;-57
2022/11/07 04:10:27;;;;;;;1.33;1.30;;;;;9.60;95916.00;;;;5094801;28;20195;-57
2022/11/07 04:18:24;;;;;;;1.47;1.47;;;;;9.50;95926.00;;;;5076778;28;20483;-57
2022/11/07 04:20:51;;;;;;;0.60;0.60;;;;;9.50;95925.00;;;;5094602;28;20576;-57
2022/11/07 04:23:18;;;;;;;0.50;0.50;;;;;9.40;95924.00;;;;5094563;28;20530;-57
2022/11/07 04:28:30;;;;;;;0.70;0.70;;;;;9.50;95932.00;;;;5076655;28;20218;-57
2022/11/07 04:30:57;;;;;;;0.67;0.67;;;;;9.40;95925.00;;;;5075933;28;20222;-57
2022/11/07 04:33:24;;;;;;;0.60;0.60;;;;;9.40;95920.00;;;;5094523;28;20659;-58
2022/11/07 04:35:51;;;;;;;0.80;0.80;;;;;9.50;95930.00;;;;5094477;28;20218;-57
2022/11/07 04:38:18;;;;;;;0.70;0.70;;;;;9.50;95924.00;;;;5094515;28;20202;-57
2022/11/07 04:40:51;;;;;;;0.60;0.60;;;;;9.60;95929.00;;;;5094382;28;20222;-57
2022/11/07 04:43:18;;;;;;;0.57;0.57;;;;;9.50;95932.00;;;;5094542;28;20195;-58
2022/11/07 04:45:44;;;;;;;0.60;0.60;;;;;9.50;95924.00;;;;5094372;28;20215;-59
2022/11/07 04:48:12;;;;;;;0.50;0.50;;;;;9.60;95933.00;;;;5094358;28;20305;-57
2022/11/07 04:50:39;;;;;;;0.60;0.60;;;;;9.60;95934.00;;;;5094142;28;20227;-57
2022/11/07 04:53:06;;;;;;;1.03;1.03;;;;;9.60;95932.00;;;;5094286;28;20688;-60
2022/11/07 04:55:33;;;;;;;0.50;0.50;;;;;9.40;95944.00;;;;5094058;28;20273;-59
2022/11/07 04:58:00;;;;;;;0.60;0.60;;;;;9.40;95935.00;;;;5094061;28;20301;-57
2022/11/07 05:00:27;;;;;;;0.60;0.60;;;;;9.40;95934.00;;;;5093904;28;20209;-56
2022/11/07 05:02:54;;;;;;;0.63;0.63;;;;;9.40;95928.00;;;;5076253;28;20628;-57
2022/11/07 05:05:21;;;;;;;0.97;0.97;;;;;9.50;95929.00;;;;5093902;28;20279;-58
2022/11/07 05:07:48;;;;;;;0.70;0.70;;;;;9.60;95941.00;;;;5093669;28;20199;-57
2022/11/07 05:10:18;;;;;;;0.73;0.73;;;;;9.60;95939.00;;;;5093875;28;20626;-58
2022/11/07 05:12:46;;;;;;;0.80;0.80;;;;;9.40;95930.00;;;;5093900;28;20261;-57
2022/11/07 05:15:13;;;;;;;0.97;0.97;;;;;9.50;95943.00;;;;5093774;28;20203;-58
2022/11/07 05:17:40;;;;;;;0.70;0.70;;;;;9.50;95946.00;;;;5093842;28;20195;-58
2022/11/07 05:20:14;;;;;;;0.73;0.73;;;;;9.50;95946.00;;;;5093811;28;20347;-59
2022/11/07 05:25:28;;;;;;;1.13;1.13;;;;;9.60;95944.00;;;;5093772;28;20246;-59
2022/11/07 05:27:56;;;;;;;0.90;0.90;;;;;9.60;95945.00;;;;5093706;28;20250;-62
2022/11/07 05:30:23;;;;;;;0.80;0.80;;;;;9.60;95939.00;;;;5093849;28;20206;-62
2022/11/07 05:32:49;;;;;;;0.60;0.60;;;;;9.50;95938.00;;;;5093726;28;20210;-58
2022/11/07 05:35:16;;;;;;;0.60;0.60;;;;;9.50;95939.00;;;;5093577;28;20269;-59
2022/11/07 05:37:43;;;;;;;0.70;0.70;;;;;9.50;95952.00;;;;5093584;28;20231;-65
2022/11/07 05:40:12;;;;;;;0.60;0.60;;;;;9.50;95949.00;;;;5093812;28;20646;-57
2022/11/07 05:42:39;;;;;;;0.70;0.70;;;;;9.50;95939.00;;;;5093535;28;20655;-58
2022/11/07 05:45:09;;;;;;;0.60;0.60;;;;;9.50;95945.00;;;;5096773;28;20191;-57
2022/11/07 05:47:35;;;;;;;0.50;0.50;;;;;9.60;95951.00;;;;5079065;28;20317;-58
2022/11/07 05:50:02;;;;;;;0.60;0.60;;;;;9.70;95949.00;;;;5097045;28;20214;-57
2022/11/07 05:52:29;;;;;;;0.60;0.60;;;;;9.60;95952.00;;;;5096926;28;20675;-58
2022/11/07 05:54:56;;;;;;;1.17;1.17;;;;;9.60;95958.00;;;;5097070;28;20217;-60
2022/11/07 05:57:22;;;;;;;1.10;1.10;;;;;9.70;95957.00;;;;5096930;28;20240;-57
2022/11/07 05:59:49;;;;;;;0.60;0.60;;;;;9.60;95954.00;;;;5096862;28;20201;-57
2022/11/07 06:02:19;;;;;;;0.73;0.73;;;;;9.70;95946.00;;;;5096747;28;20225;-58
2022/11/07 06:04:48;;;;;;;0.70;0.70;;;;;9.60;95949.00;;;;5097038;28;20194;-59
2022/11/07 06:07:15;;;;;;;0.67;0.67;;;;;9.50;95948.00;;;;5096785;28;20283;-59
2022/11/07 06:09:42;;;;;;;0.53;0.53;;;;;9.50;95950.00;;;;5096673;28;20226;-57
2022/11/07 06:12:08;;;;;;;0.67;0.67;;;;;9.50;95961.00;;;;5096726;28;20623;-59
2022/11/07 06:14:35;;;;;;;0.90;0.90;;;;;9.50;95959.00;;;;5096919;28;20205;-57
2022/11/07 06:17:02;;;;;;;1.20;1.20;;;;;9.40;95970.00;;;;5078864;28;20584;-57
2022/11/07 06:19:30;;;;;;;0.60;0.60;;;;;9.40;95964.00;;;;5079058;28;20206;-57
2022/11/07 06:21:56;;;;;;;0.80;0.80;;;;;9.50;95965.00;;;;5096524;28;20230;-58
2022/11/07 06:24:23;;;;;;;0.80;0.80;;;;;9.50;95965.00;;;;5096593;28;20280;-57
2022/11/07 06:26:50;;;;;;;0.60;0.60;;;;;9.50;95960.00;;;;5078406;28;20213;-57
2022/11/07 06:29:17;;;;;;;0.60;0.60;;;;;9.70;95972.00;;;;5096600;28;20226;-58
2022/11/07 06:31:44;;;;;;;0.67;0.67;;;;;9.80;95958.00;;;;5096587;28;20197;-58
2022/11/07 06:34:11;;;;;;;1.17;1.07;;;;;9.60;95964.00;;;;5096568;28;20317;-57
2022/11/07 06:36:38;;;;;;;0.80;0.80;;;;;9.50;95967.00;;;;5078533;28;20203;-58
2022/11/07 06:39:05;;;;;;;0.90;0.90;;;;;9.60;95971.00;;;;5096340;28;20195;-59
2022/11/07 06:41:32;;;;;;;0.63;0.63;;;;;9.40;95966.00;;;;5096476;28;20662;-59
2022/11/07 06:43:59;;;;;;;0.80;0.80;;;;;9.40;95975.00;;;;5096138;28;20183;-57
2022/11/07 06:46:28;;;;;;;1.03;1.03;;;;;9.40;95981.00;;;;5096312;28;20186;-59
2022/11/07 06:48:55;;;;;;;0.80;0.80;;;;;9.40;95971.00;;;;5096178;28;20254;-56
2022/11/07 06:51:22;;;;;;;0.70;0.70;;;;;9.30;95974.00;;;;5096309;28;20210;-59
2022/11/07 06:53:50;;;;;;;0.60;0.60;;;;;9.30;95980.00;;;;5078499;28;20564;-58
2022/11/07 06:56:17;;;;;;;1.03;1.03;;;;;9.30;95986.00;;;;5096147;28;20195;-58
2022/11/07 06:58:43;;;;;;;0.83;0.83;;;;;9.60;95983.00;;;;5096041;28;20301;-58
2022/11/07 07:01:12;;;;;;;0.80;0.80;;;;;9.60;95990.00;;;;5096045;28;20508;-61
2022/11/07 07:03:40;;;;;;;0.60;0.60;;;;;9.70;95998.00;;;;5096015;28;20283;-60
2022/11/07 07:06:10;;;;;;;0.60;0.60;;;;;9.60;95998.00;;;;5095997;28;20222;-59
2022/11/07 07:08:39;;;;;;;0.97;0.90;;;;;9.60;96002.00;;;;5078047;28;20307;-59
2022/11/07 07:11:08;;;;;;;0.57;0.57;;;;;9.50;96006.00;;;;5096070;28;20221;-58
2022/11/07 07:13:36;;;;;;;0.60;0.60;;;;;9.70;96009.00;;;;5095748;28;20306;-58
2022/11/07 07:16:03;;;;;;;0.60;0.60;;;;;9.60;96007.00;;;;5095907;28;20199;-58
2022/11/07 07:18:30;;;;;;;0.70;0.70;;;;;9.60;96006.00;;;;5077770;28;20635;-55
2022/11/07 07:21:05;;;;;;;0.70;0.70;;;;;9.80;96005.00;;;;5095513;28;20549;-57
2022/11/07 07:23:33;;;;;;;0.70;0.70;;;;;9.90;96006.00;;;;5095558;28;20229;-56
2022/11/07 07:26:00;;;;;;;0.50;0.50;;;;;9.90;96006.00;;;;5095770;28;20210;-56
2022/11/07 07:28:28;;;;;;;1.33;1.33;;;;;9.90;96011.00;;;;5095395;28;20325;-56
2022/11/07 07:31:08;;;;;;;8.30;0.90;;;;;9.90;96015.00;;;;5095474;28;20245;-56
2022/11/07 07:33:35;;;;;;;0.80;0.80;;;;;9.90;96015.00;;;;5095419;28;20301;-56
2022/11/07 07:36:02;;;;;;;0.70;0.70;;;;;9.90;96011.00;;;;5095479;28;20284;-57
2022/11/07 07:38:28;;;;;;;0.67;0.67;;;;;9.70;96014.00;;;;5095337;28;20190;-56
2022/11/07 07:40:57;;;;;;;0.60;0.60;;;;;9.90;96016.00;;;;5095533;28;20190;-57
2022/11/07 07:43:24;;;;;;;0.70;0.70;;;;;10.00;96018.00;;;;5095541;28;20191;-58
2022/11/07 07:45:52;;;;;;;0.77;0.77;;;;;10.00;96019.00;;;;5095318;28;20525;-57
2022/11/07 07:48:19;;;;;;;0.77;0.77;;;;;10.10;96013.00;;;;5077486;28;20309;-57
2022/11/07 07:50:47;;;;;;;1.00;1.00;;;;;10.20;96013.00;;;;5095015;28;20245;-56
2022/11/07 07:53:15;;;;;;;0.60;0.60;;;;;10.30;96016.00;;;;5077297;28;20255;-57
2022/11/07 07:55:41;;;;;;;0.60;0.60;;;;;10.40;96010.00;;;;5095139;28;20512;-55
2022/11/07 07:58:11;;;;;;;1.10;1.00;;;;;10.30;96015.00;;;;5095019;28;20203;-56
2022/11/07 08:00:38;;;;;;;0.53;0.53;;;;;10.30;96017.00;;;;5094979;28;20263;-58
2022/11/07 08:03:09;;;;;;;0.60;0.60;;;;;10.20;96020.00;;;;5077284;28;20213;-56
2022/11/07 08:05:37;;;;;;;0.80;0.80;;;;;10.10;96013.00;;;;5094533;28;20214;-58
2022/11/07 08:08:05;;;;;;;10.57;1.20;;;10.70;93.60;10.10;96013.00;;;;5076649;28;20311;-57
2022/11/07 08:10:31;;;;;;;0.87;0.87;;;10.80;95.30;10.10;96015.00;;;;5077112;28;20293;-56
2022/11/07 08:12:58;;;;;;;0.50;0.50;;;;;10.30;96014.00;;;;5094994;28;20253;-55
2022/11/07 08:15:25;;;;;;;0.50;0.50;;;10.90;92.60;10.20;96018.00;;;;5095124;28;20202;-57
2022/11/07 08:17:52;;;;;;;0.97;0.97;;;10.80;93.00;10.20;96020.00;;;;5077254;28;20651;-55
2022/11/07 08:20:19;;;;;;;0.57;0.57;;;10.90;92.70;10.30;96017.00;;;;5094762;28;20607;-58
2022/11/07 08:22:49;;;;;;;0.70;0.70;;;10.90;92.00;10.20;96030.00;;;;5094883;28;20359;-57
2022/11/07 08:25:16;;;;;;;0.60;0.60;;;10.90;92.20;10.50;96025.00;;;;5094844;28;20230;-58
2022/11/07 08:27:42;;;;;;;0.80;0.80;;;11.00;91.60;10.40;96026.00;;;;5095226;28;20245;-58
2022/11/07 08:30:11;;;;;;;0.50;0.50;;;11.00;91.40;10.40;96031.00;;;;5094610;28;20229;-61
2022/11/07 08:32:38;;;;;;;0.50;0.50;;;11.00;90.60;10.40;96039.00;;;;5094768;28;20195;-58
2022/11/07 08:35:05;;;;;;;0.60;0.60;;;11.10;91.20;10.40;96018.00;;;;5094644;28;20611;-59
2022/11/07 08:37:33;;;;;;;0.60;0.60;;;;;10.70;96015.00;;;;5094764;28;20191;-55
2022/11/07 08:39:59;;;;;;;1.00;1.00;;;11.10;89.70;10.60;96019.00;;;;5094560;28;20191;-59
2022/11/07 08:42:28;;;;;;;4.73;1.33;;;11.20;93.90;10.60;96018.00;;;;5097421;28;20222;-58
2022/11/07 08:44:55;;;;;;;0.50;0.50;;;11.20;89.80;10.80;96029.00;;;;5102177;28;20195;-57
2022/11/07 08:47:22;;;;;;;0.60;0.60;;;11.30;88.60;10.80;95992.00;;;;5099232;28;20234;-56
2022/11/07 08:49:48;;;;;;;0.67;0.67;;;11.30;88.20;10.80;96034.00;;;;5095270;28;20252;-58
2022/11/07 08:52:15;;;;;;;0.53;0.53;;;;;10.90;96015.00;;;;5095120;28;20237;-57
2022/11/07 08:54:44;;;;;;;0.50;0.50;;;11.60;88.00;11.10;96024.00;;;;5094772;28;20213;-58
2022/11/07 08:57:11;;;;;;;0.60;0.60;;;11.60;86.80;11.10;96033.00;;;;5094636;28;20671;-56
2022/11/07 08:59:37;;;;;;;0.80;0.80;;;11.70;86.70;11.30;96029.00;;;;5094133;28;20249;-57
2022/11/07 09:02:04;;;;;;;0.60;0.60;;;11.80;85.80;11.30;96037.00;;;;5094439;28;20205;-59
2022/11/07 09:04:30;;;;;;;0.50;0.50;;;11.70;85.80;11.10;96027.00;;;;5094385;28;20217;-58
2022/11/07 09:06:57;;;;;;;1.77;1.40;;;11.60;86.50;10.90;96028.00;;;;5095055;28;20281;-57
2022/11/07 09:09:24;;;;;;;0.63;0.63;;;;;11.20;96034.00;;;;5078018;28;20260;-56
2022/11/07 09:11:51;;;;;;;0.90;0.90;;;11.70;86.00;11.10;96034.00;;;;5095462;28;20255;-59
2022/11/07 09:14:18;;;;;;;0.50;0.50;;;11.80;85.40;11.20;96040.00;;;;5096472;28;20198;-58
2022/11/07 09:16:44;;;;;;;1.13;1.13;;;11.80;86.70;11.40;96045.00;;;;5095631;28;20268;-58
2022/11/07 09:19:11;;;;;;;0.60;0.60;;;;;11.30;96043.00;;;;5094823;28;20631;-64
2022/11/07 09:21:38;;;;;;;0.53;0.53;;;11.90;85.10;11.20;96046.00;;;;5094210;28;20293;-57
2022/11/07 09:24:06;;;;;;;0.50;0.50;;;11.80;85.70;11.50;96049.00;;;;5094794;28;20262;-57
2022/11/07 09:26:33;;;;;;;0.60;0.60;;;12.10;83.70;11.60;96042.00;;;;5094887;28;20194;-56
2022/11/07 09:29:00;;;;;;;0.50;0.50;;;12.10;83.30;11.60;96045.00;;;;5094545;28;20276;-58
2022/11/07 09:31:27;;;;;;;0.70;0.70;;;12.10;83.70;11.50;96053.00;;;;5094114;28;20233;-56
2022/11/07 09:33:55;;;;;;;0.60;0.60;;;12.10;83.40;11.70;96052.00;;;;5093027;28;20218;-55
2022/11/07 09:36:23;;;;;;;1.33;1.33;;;12.20;84.10;11.80;96064.00;;;;5093817;28;20559;-56
2022/11/07 09:38:49;;;;;;;0.60;0.60;;;12.30;82.60;11.70;96058.00;;;;5093526;28;20303;-59
2022/11/07 09:41:34;;;;;;;1.30;1.20;;;12.20;82.40;11.80;96051.00;;;;5093876;28;20708;-56
2022/11/07 09:44:34;;;;;;;0.60;0.60;;;;;11.80;96044.00;;;;5092582;28;20198;-57
2022/11/07 09:47:13;;;;;;;0.73;0.73;;;12.20;82.10;11.60;96059.00;;;;5094062;28;20264;-59
2022/11/07 09:49:45;;;;;;;0.50;0.50;;;12.20;82.70;11.60;96054.00;;;;5093707;28;20646;-56
2022/11/07 09:52:18;;;;;;;0.90;0.90;;;12.20;83.20;11.60;96043.00;;;;5093640;28;20189;-58
2022/11/07 09:54:53;;;;;;;0.80;0.80;;;12.40;82.80;11.90;96042.00;;;;5093731;28;20201;-58
2022/11/07 09:57:20;;;;;;;0.50;0.50;;;12.40;82.20;11.90;96051.00;;;;5093548;28;20325;-57
2022/11/07 09:59:52;;;;;;;0.70;0.70;;;;;11.80;96052.00;;;;5093706;28;20209;-55
2022/11/07 10:02:23;;;;;;;0.60;0.60;;;;;11.70;96045.00;;;;5094110;28;20215;-57
2022/11/07 10:04:56;;;;;;;1.17;1.17;;;;;11.50;96062.00;;;;5095308;28;20195;-57
2022/11/07 10:07:37;;;;;;;0.70;0.70;;;12.20;83.40;11.60;96044.00;;;;5093545;28;20199;-58
2022/11/07 10:10:12;;;;;;;0.90;0.90;;;;;11.60;96045.00;;;;5093608;28;20218;-56
2022/11/07 10:13:11;;;;;;;0.97;0.97;;;12.20;84.30;11.50;96047.00;;;;5076127;28;20684;-56
2022/11/07 10:16:00;;;;;;;0.70;0.70;;;12.20;84.20;11.70;96052.00;;;;5075641;28;20670;-56
2022/11/07 10:18:49;;;;;;;1.27;1.17;;;12.50;83.30;12.10;96051.00;;;;5093782;28;20215;-59
2022/11/07 10:21:27;;;;;;;0.97;0.83;;;12.70;81.90;12.20;96051.00;;;;5093930;28;20225;-56
2022/11/07 10:24:15;;;;;;;1.90;1.33;;;12.70;81.70;12.10;96048.00;;;;5093566;28;20210;-59
2022/11/07 10:26:44;;;;;;;0.57;0.57;;;;;11.90;96050.00;;;;5092848;28;20290;-56
2022/11/07 10:29:14;;;;;;;0.50;0.50;;;12.60;81.40;12.00;96042.00;;;;5093960;28;20237;-57
2022/11/07 10:31:48;;;;;;;0.53;0.53;;;;;12.10;96041.00;;;;5097099;28;20231;-57
2022/11/07 10:34:22;;;;;;;0.53;0.53;;;12.60;81.80;12.00;96041.00;;;;5097240;28;20194;-57
2022/11/07 10:36:49;;;;;;;0.50;0.50;;;12.60;82.00;12.30;96052.00;;;;5096823;28;20302;-56
2022/11/07 10:39:18;;;;;;;0.50;0.50;;;12.90;79.90;12.30;96047.00;;;;5097117;28;20211;-57
2022/11/07 10:42:06;;;;;;;1.27;1.17;;;12.90;80.80;12.40;96027.00;;;;5098133;28;20213;-61
2022/11/07 10:44:34;;;;;;;1.00;1.00;;;12.80;80.00;12.20;96040.00;;;;5098783;28;20685;-59
2022/11/07 10:47:15;;;;;;;0.50;0.50;;;12.80;80.80;12.20;96027.00;;;;5100851;28;20199;-55
2022/11/07 10:49:53;;;;;;;2.20;1.10;;;12.80;82.50;12.00;95998.00;;;;5097647;28;20248;-58
2022/11/07 10:52:20;;;;;;;0.50;0.50;;;;;12.30;96019.00;;;;5098553;28;20199;-56
2022/11/07 10:54:46;;;;;;;0.50;0.50;;;12.80;82.50;12.30;96024.00;;;;5098527;28;20215;-57
2022/11/07 10:57:16;;;;;;;0.50;0.50;;;;;12.30;96021.00;;;;5097428;28;20255;-57
2022/11/07 10:59:55;;;;;;;0.50;0.50;;;13.00;81.70;12.50;96023.00;;;;5098283;28;20251;-59
2022/11/07 11:02:25;;;;;;;0.50;0.50;;;13.00;81.00;12.80;96024.00;;;;5097973;28;20233;-60
2022/11/07 11:04:54;;;;;;;0.60;0.60;;;13.20;79.70;12.60;96027.00;;;;5096877;28;20202;-58
2022/11/07 11:07:25;;;;;;;0.70;0.70;;;13.40;84.20;12.90;96026.00;;;;5096993;28;20290;-63
2022/11/07 11:09:56;;;;;;;0.60;0.60;;;13.50;78.20;13.00;96016.00;;;;5096718;28;20206;-59
2022/11/07 11:12:26;;;;;;;0.60;0.60;;;13.50;79.40;13.70;96024.00;;;;5096978;28;20229;-59
2022/11/07 11:15:05;;;;;;;0.53;0.53;;;14.00;74.80;13.40;96032.00;;;;5096979;28;20215;-58
2022/11/07 11:17:32;;;;;;;0.83;0.83;;;;;13.40;96022.00;;;;5079099;28;20558;-66
2022/11/07 11:20:02;;;;;;;0.50;0.50;;;14.00;75.00;13.70;96018.00;;;;5097664;28;20199;-58
2022/11/07 11:22:29;;;;;;;0.63;0.63;;;;;13.80;96022.00;;;;5098284;28;20195;-57
2022/11/07 11:25:02;;;;;;;0.60;0.60;;;;;13.70;96023.00;;;;5098969;28;20199;-57
2022/11/07 11:27:34;;;;;;;0.53;0.53;;;14.20;73.60;13.50;96013.00;;;;5098446;28;20286;-57
2022/11/07 11:30:06;;;;;;;0.80;0.80;;;13.80;75.10;13.40;96012.00;;;;5098321;28;20226;-58
2022/11/07 11:32:40;;;;;;;0.80;0.80;;;14.00;73.40;13.60;96013.00;;;;5095912;28;20654;-57
2022/11/07 11:35:23;;;;;;;0.80;0.80;;;;;13.60;96013.00;;;;5078118;28;20728;-57
2022/11/07 11:38:02;;;;;;;0.93;0.93;;;13.90;72.90;13.40;96026.00;;;;5078042;28;20198;-57
2022/11/07 11:40:37;;;;;;;0.60;0.60;;;13.90;72.90;13.80;96009.00;;;;5094741;28;20357;-57
2022/11/07 11:43:19;;;;;;;1.80;1.03;;;14.10;72.60;13.70;95976.00;;;;5094262;28;20229;-58
2022/11/07 11:46:04;;;;;;;0.50;0.50;;;14.50;69.30;14.20;95986.00;;;;5095510;28;20566;-57
2022/11/07 11:48:40;;;;;;;0.70;0.70;;;14.60;70.50;14.10;95987.00;;;;5095524;28;20268;-57
2022/11/07 11:51:17;;;;;;;0.70;0.70;;;14.60;69.60;14.60;95981.00;;;;5095342;28;20198;-57
2022/11/07 11:53:46;;;;;;;0.80;0.80;;;14.30;69.30;13.60;96002.00;;;;5094492;28;20209;-61
2022/11/07 11:56:37;;;;;;;0.60;0.60;;;14.20;70.60;14.40;95997.00;;;;5095345;28;20255;-57
2022/11/07 11:59:47;;;;;;;1.90;0.80;;;14.70;67.10;15.10;95972.00;;;;5094325;28;20206;-56
2022/11/07 12:02:46;;;;;;;0.60;0.60;;;15.10;67.60;15.00;95963.00;;;;5094271;28;20226;-56
2022/11/07 12:05:39;;;;;;;0.60;0.60;;;15.30;62.40;15.00;95964.00;;;;5095290;28;20209;-59
2022/11/07 12:08:20;;;;;;;1.93;1.13;;;;;14.70;95959.00;;;;5095160;28;20210;-57
2022/11/07 12:10:59;;;;;;;0.60;0.60;;;15.10;59.00;15.10;95939.00;;;;5077396;28;20198;-56
2022/11/07 12:13:41;;;;;;;0.70;0.70;;;15.40;56.90;16.30;95931.00;;;;5095051;28;20205;-56
2022/11/07 12:16:25;;;;;;;1.90;1.13;;;16.30;55.80;15.80;95916.00;;;;5095013;28;20195;-56
2022/11/07 12:19:11;;;;;;;1.17;1.07;;;16.10;55.40;17.10;95982.00;;;;5095017;28;20340;-58
2022/11/07 12:21:52;;;;;;;0.73;0.73;;;16.80;52.10;17.20;95918.00;;;;5094944;28;20640;-59